Latest Weather Observations for PORTABLE QFRK (Ravenshoe)

IDQ60801

Issued at 9:12 pm EST Wednesday 14 November 2018 (issued every 10 minutes, with the page automatically refreshed every 10 minutes)

About weather observations | Map of weather stations | Latest weather observations for QLD | Other Formats
Station Details ID: 250075 Name: PORTABLE QFRK (RAVENSHOE) Lat: -17.61 Lon: 145.49 Height: 922.0 m
Data from the previous 72 hours. | See also: Recent months for locations in Queensland
Date/Time
EST
Temp
°C
App
Temp
°C
Dew
Point
°C
Rel
Hum
%
Delta-T
°C
Wind Press
QNH
hPa
Press
MSL
hPa
Rain since
9am
mm
Dir  Spd
km/h
Gust
km/h
Spd
kts
Gust
kts
14/08:50pm 17.3 16.6 15.3 88 1.2 E 13 13 7 7 - - 0.0
14/08:40pm 17.5 16.4 15.4 87 1.3 E 15 17 8 9 - - 0.0
14/08:30pm 17.7 16.5 16.1 90 1.0 E 17 19 9 10 - - 0.0
14/08:20pm 17.8 16.6 16.0 89 1.1 E 17 19 9 10 - - 0.0
14/08:10pm 18.0 16.8 16.0 88 1.2 E 17 19 9 10 - - 0.0
14/08:00pm 18.2 17.0 16.0 87 1.4 E 17 22 9 12 - - 0.0
14/07:50pm 18.3 17.2 16.3 88 1.2 E 17 20 9 11 - - 0.0
14/07:40pm 18.6 17.6 16.5 87 1.3 E 17 20 9 11 - - 0.0
14/07:30pm 18.6 17.4 16.2 86 1.5 E 17 20 9 11 - - 0.0
14/07:20pm 18.7 18.0 16.5 87 1.4 E 15 19 8 10 - - 0.0
14/07:10pm 18.8 18.2 16.6 87 1.4 E 15 19 8 10 - - 0.0
14/07:00pm 19.0 18.3 16.4 85 1.6 E 15 17 8 9 - - 0.0
14/06:50pm 19.3 18.6 16.3 83 1.9 E 15 17 8 9 - - 0.0
14/06:40pm 19.6 18.9 16.4 82 2.0 E 15 17 8 9 - - 0.0
14/06:30pm 20.2 19.5 16.5 79 2.3 E 15 17 8 9 - - 0.0
14/06:20pm 20.8 19.6 16.2 75 2.9 E 17 20 9 11 - - 0.0
14/06:10pm 21.3 19.8 16.2 72 3.2 E 19 22 10 12 - - 0.0
14/06:00pm 21.7 20.1 16.1 70 3.5 E 19 22 10 12 - - 0.0
14/05:50pm 21.9 20.4 16.3 70 3.5 E 19 20 10 11 - - 0.0
14/05:40pm 22.5 21.5 16.5 69 3.8 E 17 22 9 12 - - 0.0
14/05:30pm 22.6 21.9 16.5 68 3.9 E 15 19 8 10 - - 0.0
14/05:20pm 23.1 22.7 16.3 65 4.3 ESE 13 17 7 9 - - 0.0
14/05:10pm 23.6 23.4 16.6 65 4.5 E 13 17 7 9 - - 0.0
14/05:00pm 23.8 23.9 16.4 63 4.7 ESE 11 19 6 10 - - 0.0
14/04:50pm 24.3 24.0 16.5 61 5.0 E 13 19 7 10 - - 0.0
14/04:40pm 23.6 22.8 17.0 66 4.2 E 17 19 9 10 - - 0.0
14/04:30pm 24.5 24.0 16.9 62 4.9 E 15 19 8 10 - - 0.0
14/04:20pm 24.6 23.5 16.4 60 5.2 ENE 17 20 9 11 - - 0.0
14/04:10pm 25.6 25.5 17.0 59 5.5 ESE 13 20 7 11 - - 0.0
14/04:00pm 25.8 26.2 16.4 56 6.0 ESE 9 13 5 7 - - 0.0
14/03:50pm 25.7 25.0 15.5 53 6.4 E 13 20 7 11 - - 0.0
14/03:40pm 25.9 26.0 16.5 56 6.0 E 11 19 6 10 - - 0.0
14/03:30pm 25.9 25.6 15.4 52 6.6 E 11 17 6 9 - - 0.0
14/03:20pm 27.0 26.5 14.8 47 7.6 SE 11 15 6 8 - - 0.0
14/03:10pm 26.8 26.7 15.0 48 7.4 ESE 9 13 5 7 - - 0.0
14/03:00pm 26.7 26.3 15.2 49 7.2 ESE 11 17 6 9 - - 0.0
14/02:50pm 27.6 26.5 14.4 44 8.2 ESE 13 17 7 9 - - 0.0
14/02:40pm 27.1 26.8 14.5 46 7.9 SE 9 15 5 8 - - 0.0
14/02:30pm 25.5 24.4 14.3 50 6.9 E 13 20 7 11 - - 0.0
14/02:20pm 26.1 24.4 14.6 49 7.2 ENE 17 19 9 10 - - 0.0
14/02:10pm 26.7 25.9 15.0 48 7.3 E 13 20 7 11 - - 0.0
14/02:00pm 26.0 24.6 14.4 48 7.2 E 15 20 8 11 - - 0.0
14/01:50pm 26.3 24.6 14.7 48 7.2 E 17 22 9 12 - - 0.0
14/01:40pm 25.1 24.0 14.4 51 6.6 E 13 19 7 10 - - 0.0
14/01:30pm 25.3 24.2 15.2 53 6.3 ENE 15 19 8 10 - - 0.0
14/01:20pm 26.2 25.4 15.0 50 7.0 E 13 19 7 10 - - 0.0
14/01:10pm 26.7 25.2 14.1 46 7.8 E 15 20 8 11 - - 0.0
14/01:00pm 26.7 26.0 14.3 46 7.7 E 11 17 6 9 - - 0.0
14/12:50pm 26.6 24.7 14.1 46 7.7 E 17 20 9 11 - - 0.0
14/12:40pm 26.0 24.6 14.5 49 7.1 ENE 15 20 8 11 - - 0.0
14/12:30pm 25.7 23.7 12.7 44 7.8 ENE 15 20 8 11 - - 0.0
14/12:20pm 25.6 24.0 13.9 48 7.2 E 15 22 8 12 - - 0.0
14/12:10pm 25.7 24.2 15.2 52 6.6 ENE 17 20 9 11 - - 0.0
14/12:00pm 25.0 23.3 14.8 53 6.3 ENE 17 20 9 11 - - 0.0
14/11:50am 24.8 23.4 15.5 56 5.8 ENE 17 20 9 11 - - 0.0
14/11:40am 24.8 22.7 14.7 53 6.3 E 19 24 10 13 - - 0.0
14/11:30am 24.5 23.0 15.2 56 5.8 E 17 22 9 12 - - 0.0
14/11:20am 23.8 21.9 15.1 58 5.4 ENE 19 24 10 13 - - 0.0
14/11:10am 24.0 22.2 15.6 59 5.3 E 19 22 10 12 - - 0.0
14/11:00am 23.8 21.8 15.5 59 5.2 E 20 24 11 13 - - 0.0
14/10:50am 23.7 21.7 15.6 60 5.1 E 20 24 11 13 - - 0.0
14/10:40am 23.7 21.4 15.8 61 5.0 ENE 22 28 12 15 - - 0.0
14/10:30am 24.0 22.2 16.1 61 5.0 E 20 28 11 15 - - 0.0
14/10:20am 23.5 21.6 15.7 61 4.9 E 20 28 11 15 - - 0.0
14/10:00am 23.5 21.3 14.9 58 5.3 E 20 24 11 13 - - 0.0
14/09:50am 22.4 20.4 15.0 63 4.6 E 19 28 10 15 - - 0.0
14/09:40am 22.9 20.5 14.5 59 5.2 ENE 20 22 11 12 - - 0.0
14/09:30am 22.4 20.2 15.0 63 4.6 E 20 26 11 14 - - 0.0
14/09:20am 22.2 19.8 15.3 65 4.3 E 22 24 12 13 - - 0.0
14/09:10am 21.7 19.5 15.0 65 4.1 E 20 26 11 14 - - 0.0
14/09:00am 21.4 20.4 15.6 69 3.6 E 15 22 8 12 - - 0.0
14/08:50am 21.2 18.9 15.8 71 3.4 E 22 28 12 15 - - 0.0
14/08:40am 21.6 20.3 15.7 69 3.7 ESE 17 22 9 12 - - 0.0
14/08:30am 21.4 20.2 16.0 71 3.4 E 17 22 9 12 - - 0.0
14/08:20am 20.8 19.6 16.0 74 3.0 E 17 20 9 11 - - 0.0
14/08:10am 20.6 19.4 16.2 76 2.8 E 17 22 9 12 - - 0.0
14/08:00am 20.5 19.0 16.3 77 2.6 E 19 24 10 13 - - 0.0
14/07:50am 19.8 18.6 16.2 80 2.2 E 17 24 9 13 - - 0.0
14/07:40am 19.6 18.2 16.6 83 1.9 E 19 24 10 13 - - 0.0
14/07:30am 19.5 18.8 16.4 82 1.9 E 15 19 8 10 - - 0.0
14/07:20am 19.1 18.0 16.4 84 1.7 E 17 20 9 11 - - 0.0
14/07:10am 18.7 18.4 16.5 87 1.4 E 13 19 7 10 - - 0.0
14/07:00am 18.2 18.8 16.7 91 0.9 ENE 9 13 5 7 - - 0.0
14/06:50am 17.6 17.2 16.3 92 0.8 E 13 15 7 8 - - 0.0
14/06:40am 17.4 17.4 16.2 93 0.7 E 11 13 6 7 - - 0.0
14/06:30am 17.2 17.1 15.9 92 0.8 E 11 15 6 8 - - 0.0
14/06:20am 17.1 17.3 15.8 92 0.8 ENE 9 11 5 6 - - 0.0
14/06:10am 16.9 17.1 15.8 93 0.7 E 9 11 5 6 - - 0.0
14/06:00am 16.7 16.5 15.6 93 0.7 ENE 11 13 6 7 - - 0.0
14/05:50am 16.5 15.7 15.2 92 0.8 E 13 15 7 8 - - 0.0
14/05:40am 16.5 15.7 15.0 91 0.9 E 13 17 7 9 - - 0.0
14/05:30am 16.7 16.4 15.4 92 0.8 E 11 15 6 8 - - 0.0
14/05:20am 16.9 17.2 15.9 94 0.6 E 9 15 5 8 - - 0.0
14/05:10am 17.0 16.9 16.0 94 0.6 E 11 13 6 7 - - 0.0
14/05:00am 16.8 16.6 15.7 93 0.7 E 11 13 6 7 - - 0.0
14/04:50am 16.6 16.7 15.5 93 0.7 ENE 9 11 5 6 - - 0.0
14/04:40am 16.6 16.0 15.6 94 0.6 ENE 13 15 7 8 - - 0.0
14/04:30am 15.8 16.1 15.1 96 0.4 ENE 7 11 4 6 - - 0.0
14/04:20am 15.1 15.6 14.1 94 0.6 NE 4 6 2 3 - - 0.0
14/04:10am 15.2 16.2 14.2 94 0.6 NE 2 4 1 2 - - 0.0
14/04:00am 15.5 16.5 14.2 92 0.8 NE 2 6 1 3 - - 0.0
14/03:50am 15.6 17.0 14.4 93 0.7 CALM 0 2 0 1 - - 0.0
14/03:40am 15.7 16.7 14.2 91 0.9 NE 2 4 1 2 - - 0.0
14/03:30am 16.0 16.3 14.4 90 1.0 ENE 6 9 3 5 - - 0.0
14/03:20am 16.2 15.9 14.5 90 1.0 E 9 13 5 7 - - 0.0
14/03:10am 16.4 15.8 14.6 89 1.1 E 11 15 6 8 - - 0.0
14/03:00am 16.6 15.7 14.9 90 1.0 E 13 15 7 8 - - 0.0
14/02:50am 16.7 15.9 15.1 90 1.0 E 13 17 7 9 - - 0.0
14/02:40am 16.8 16.4 15.3 91 0.9 E 11 15 6 8 - - 0.0
14/02:30am 16.9 16.1 15.2 90 1.0 E 13 19 7 10 - - 0.0
14/02:20am 17.0 16.7 15.5 91 0.9 ENE 11 13 6 7 - - 0.0
14/02:10am 16.9 17.0 15.5 91 0.9 ENE 9 15 5 8 - - 0.0
14/02:00am 16.9 17.0 15.6 92 0.8 ENE 9 11 5 6 - - 0.0
14/01:50am 16.6 17.0 15.4 93 0.7 ENE 7 9 4 5 - - 0.0
14/01:40am 16.4 16.8 15.2 93 0.7 ENE 7 7 4 4 - - 0.0
14/01:30am 16.2 16.7 15.0 93 0.7 ENE 6 9 3 5 - - 0.0
14/01:20am 16.2 16.5 15.0 93 0.7 ENE 7 11 4 6 - - 0.0
14/01:10am 16.3 16.2 15.0 92 0.8 ENE 9 11 5 6 - - 0.0
14/01:00am 16.4 16.3 14.9 91 0.9 ENE 9 9 5 5 - - 0.0
14/12:50am 16.6 16.1 14.9 90 1.0 ENE 11 15 6 8 - - 0.0
14/12:40am 16.7 16.2 14.9 89 1.1 E 11 15 6 8 - - 0.0
14/12:30am 16.7 16.6 15.0 90 1.0 ENE 9 13 5 7 - - 0.0
14/12:20am 16.8 16.4 15.1 90 1.0 ENE 11 13 6 7 - - 0.0
14/12:10am 16.8 16.9 15.5 92 0.8 ENE 9 11 5 6 - - 0.0
14/12:00am 16.8 16.5 15.4 91 0.9 ENE 11 15 6 8 - - 0.0
 
Date/Time
EST
Temp
°C
App
Temp
°C
Dew
Point
°C
Rel
Hum
%
Delta-T
°C
Wind Press
QNH
hPa
Press
MSL
hPa
Rain since
9am
mm
Dir  Spd
km/h
Gust
km/h
Spd
kts
Gust
kts
13/11:50pm 16.8 16.4 15.3 91 0.9 ENE 11 19 6 10 - - 0.0
13/11:40pm 16.8 16.9 15.6 93 0.7 ENE 9 13 5 7 - - 0.0
13/11:30pm 16.7 16.0 15.5 93 0.7 E 13 15 7 8 - - 0.0
13/11:20pm 16.7 16.0 15.4 92 0.8 ENE 13 19 7 10 - - 0.0
13/11:10pm 16.6 16.6 15.2 91 0.8 ENE 9 11 5 6 - - 0.0
13/11:00pm 16.7 16.7 15.1 90 1.0 ENE 9 11 5 6 - - 0.0
13/10:50pm 16.6 16.2 15.1 91 0.9 E 11 15 6 8 - - 0.0
13/10:40pm 16.5 16.5 15.3 93 0.7 ENE 9 15 5 8 - - 0.0
13/10:30pm 16.5 17.0 15.6 94 0.5 ENE 7 11 4 6 - - 0.0
13/10:20pm 16.4 17.1 15.5 94 0.5 NE 6 7 3 4 - - 0.0
13/10:10pm 16.3 17.3 15.4 94 0.5 NE 4 6 2 3 - - 0.0
13/10:00pm 16.2 16.8 15.3 94 0.5 ENE 6 11 3 6 - - 0.0
13/09:50pm 15.9 16.7 14.9 94 0.6 NE 4 6 2 3 - - 0.0
13/09:40pm 15.9 16.4 14.9 94 0.6 ENE 6 7 3 4 - - 0.0
13/09:30pm 16.0 16.2 14.8 93 0.7 ENE 7 9 4 5 - - 0.0
13/09:20pm 16.2 15.7 15.0 93 0.7 ENE 11 15 6 8 - - 0.0
13/09:10pm 16.3 15.5 15.2 93 0.7 ENE 13 15 7 8 - - 0.0
13/09:00pm 16.3 15.5 15.1 93 0.7 ENE 13 19 7 10 - - 0.0
13/08:50pm 16.3 15.5 15.2 93 0.7 ENE 13 17 7 9 - - 0.0
13/08:40pm 16.2 15.8 15.1 93 0.7 ENE 11 15 6 8 - - 0.0
13/08:30pm 16.2 15.7 15.0 93 0.7 ENE 11 13 6 7 - - 0.0
13/08:20pm 16.2 15.4 15.0 93 0.7 E 13 19 7 10 - - 0.0
13/08:10pm 16.0 16.2 14.8 93 0.7 ENE 7 9 4 5 - - 0.0
13/08:00pm 16.1 16.3 14.7 91 0.8 ENE 7 7 4 4 - - 0.0
13/07:50pm 16.2 16.0 14.7 91 0.9 ENE 9 9 5 5 - - 0.0
13/07:40pm 16.5 16.0 14.8 90 1.0 E 11 13 6 7 - - 0.0
13/07:30pm 16.7 16.1 14.6 87 1.3 E 11 11 6 6 - - 0.0
13/07:20pm 16.8 16.2 14.6 87 1.3 E 11 13 6 7 - - 0.0
13/07:10pm 17.1 16.4 14.4 84 1.6 E 11 15 6 8 - - 0.0
13/07:00pm 17.4 16.7 14.2 81 1.9 E 11 13 6 7 - - 0.0
13/06:50pm 17.8 16.2 13.9 78 2.3 E 15 17 8 9 - - 0.0
13/06:40pm 18.0 17.5 13.8 76 2.5 E 9 13 5 7 - - 0.0
13/06:30pm 18.4 17.7 14.2 76 2.5 E 11 15 6 8 - - 0.0
13/06:20pm 19.0 17.8 14.0 73 3.0 ENE 13 17 7 9 - - 0.0
13/06:10pm 19.7 18.8 13.8 69 3.5 ENE 11 17 6 9 - - 0.0
13/06:00pm 20.5 20.0 13.9 66 4.0 E 9 13 5 7 - - 0.0
13/05:50pm 20.9 20.0 13.7 63 4.3 E 11 15 6 8 - - 0.0
13/05:40pm 21.4 20.1 13.6 61 4.7 E 13 17 7 9 - - 0.0
13/05:30pm 21.7 19.7 12.7 56 5.3 E 15 19 8 10 - - 0.0
13/05:20pm 22.2 20.1 12.3 53 5.8 E 15 19 8 10 - - 0.0
13/05:10pm 22.8 20.4 10.1 44 7.2 E 13 19 7 10 - - 0.0
13/05:00pm 23.7 22.5 11.6 46 7.1 ESE 9 11 5 6 - - 0.0
13/04:50pm 23.7 21.2 8.2 37 8.6 SE 11 17 6 9 - - 0.0
13/04:40pm 24.0 21.6 8.8 38 8.5 SE 11 13 6 7 - - 0.0
13/04:30pm 24.4 22.0 8.6 36 8.9 SE 11 15 6 8 - - 0.0
13/04:20pm 24.8 22.4 8.8 36 9.0 SE 11 17 6 9 - - 0.0
13/04:00pm 24.9 22.8 9.6 38 8.7 SE 11 19 6 10 - - 0.0
13/03:50pm 25.0 22.1 9.5 37 8.8 E 15 20 8 11 - - 0.0
13/03:40pm 25.2 22.8 8.7 35 9.3 SE 11 17 6 9 - - 0.0
13/03:30pm 25.4 22.1 8.2 33 9.6 ESE 15 17 8 9 - - 0.0
13/03:20pm 25.5 22.1 6.1 29 10.5 ESE 13 19 7 10 - - 0.0
13/03:10pm 25.2 21.7 7.1 31 9.9 E 15 22 8 12 - - 0.0
13/03:00pm 25.2 21.7 7.3 32 9.8 ESE 15 22 8 12 - - 0.0
13/02:50pm 25.6 22.1 8.6 34 9.6 E 17 24 9 13 - - 0.0
13/02:40pm 25.9 22.8 8.7 33 9.7 ESE 15 20 8 11 - - 0.0
13/02:30pm 25.6 22.8 8.6 34 9.6 SE 13 17 7 9 - - 0.0
13/02:20pm 25.9 23.5 8.7 33 9.7 SE 11 17 6 9 - - 0.0
13/02:10pm 25.4 22.7 9.0 35 9.3 SE 13 17 7 9 - - 0.0
13/02:00pm 25.6 23.0 9.4 36 9.3 SE 13 19 7 10 - - 0.0
13/01:50pm 25.5 23.0 9.6 36 9.1 ESE 13 20 7 11 - - 0.0
13/01:40pm 25.9 23.4 9.8 36 9.3 ESE 13 19 7 10 - - 0.0
13/01:30pm 25.7 22.8 9.8 36 9.1 ESE 15 20 8 11 - - 0.0
13/01:20pm 25.5 23.1 10.1 38 8.9 ESE 13 19 7 10 - - 0.0
13/01:10pm 25.2 22.4 8.7 35 9.3 ESE 13 19 7 10 - - 0.0
13/01:00pm 24.8 20.5 9.2 37 8.8 E 22 26 12 14 - - 0.0
13/12:50pm 25.3 22.4 9.8 37 8.9 ESE 15 22 8 12 - - 0.0
13/12:40pm 25.1 22.0 8.7 35 9.2 ESE 15 20 8 11 - - 0.0
13/12:30pm 25.2 22.5 10.2 38 8.7 ESE 15 28 8 15 - - 0.0
13/12:20pm 24.8 21.9 12.4 46 7.4 E 19 26 10 14 - - 0.0
13/12:10pm 24.9 22.7 12.1 44 7.6 E 15 20 8 11 - - 0.0
13/12:00pm 24.4 22.8 12.8 48 7.0 ESE 13 22 7 12 - - 0.0
13/11:50am 24.4 21.9 12.2 46 7.3 ESE 17 22 9 12 - - 0.0
13/11:40am 24.2 22.9 13.6 51 6.4 SE 13 17 7 9 - - 0.0
13/11:30am 24.3 22.4 11.8 45 7.4 SE 13 19 7 10 - - 0.0
13/11:20am 23.7 22.7 13.4 52 6.2 ESE 11 15 6 8 - - 0.0
13/11:10am 24.2 22.8 13.5 51 6.5 ESE 13 19 7 10 - - 0.0
13/11:00am 24.0 22.4 13.8 53 6.2 E 15 19 8 10 - - 0.0
13/10:50am 23.3 21.8 14.2 56 5.6 ESE 15 20 8 11 - - 0.0
13/10:40am 22.7 20.9 13.4 55 5.6 ESE 15 22 8 12 - - 0.0
13/10:30am 23.2 21.8 14.4 57 5.4 ESE 15 20 8 11 - - 0.0
13/10:20am 22.6 21.6 14.6 60 4.9 ESE 13 17 7 9 - - 0.0
13/10:10am 22.2 20.8 14.6 62 4.7 ESE 15 24 8 13 - - 0.0
13/10:00am 22.6 19.0 13.1 55 5.7 E 24 30 13 16 - - 0.0
13/09:50am 22.0 18.0 12.9 56 5.4 ESE 26 32 14 17 - - 0.0
13/09:40am 22.4 19.6 13.1 55 5.6 E 20 26 11 14 - - 0.0
13/09:30am 21.5 18.2 14.0 62 4.5 E 24 30 13 16 - - 0.0
13/09:20am 21.4 18.5 14.0 62 4.5 E 22 26 12 14 - - 0.0
13/09:10am 21.1 17.7 13.8 63 4.4 E 24 32 13 17 - - 0.0
13/09:00am 20.5 18.0 14.0 66 3.9 E 20 24 11 13 - - 0.0
13/08:50am 20.8 18.3 14.2 66 4.0 E 20 26 11 14 - - 0.0
13/08:40am 20.9 18.3 13.9 64 4.2 E 20 22 11 12 - - 0.0
13/08:30am 20.1 16.5 14.1 68 3.6 E 26 32 14 17 - - 0.0
13/08:20am 20.0 17.5 14.0 68 3.6 E 20 30 11 16 - - 0.0
13/08:10am 19.8 17.6 14.5 71 3.2 E 19 28 10 15 - - 0.0
13/08:00am 19.7 18.3 14.6 72 3.1 E 15 20 8 11 - - 0.0
13/07:50am 18.9 16.1 14.4 75 2.7 E 22 26 12 14 - - 0.0
13/07:40am 18.8 16.5 14.6 76 2.5 E 20 24 11 13 - - 0.0
13/07:30am 18.6 16.2 14.5 77 2.5 E 20 24 11 13 - - 0.0
13/07:20am 18.3 16.6 14.6 79 2.2 E 17 22 9 12 - - 0.0
13/07:10am 17.9 16.5 14.5 80 2.0 E 15 20 8 11 - - 0.0
13/07:00am 17.4 15.7 14.7 84 1.6 E 17 24 9 13 - - 0.0
13/06:50am 17.5 15.7 14.4 82 1.9 E 17 22 9 12 - - 0.0
13/06:40am 17.1 16.0 14.4 84 1.6 E 13 19 7 10 - - 0.0
13/06:30am 16.8 16.1 14.3 85 1.5 E 11 17 6 9 - - 0.0
13/06:20am 16.7 16.1 14.5 87 1.3 E 11 13 6 7 - - 0.0
13/06:10am 16.4 16.1 14.3 87 1.3 E 9 15 5 8 - - 0.0
13/06:00am 16.0 15.7 14.3 90 1.0 E 9 13 5 7 - - 0.0
13/05:50am 15.9 15.9 14.1 89 1.1 E 7 9 4 5 - - 0.0
13/05:40am 15.8 15.7 14.0 89 1.1 E 7 13 4 7 - - 0.0
13/05:30am 15.7 15.5 13.7 88 1.2 E 7 11 4 6 - - 0.0
13/05:20am 15.8 15.7 13.9 88 1.1 E 7 11 4 6 - - 0.0
13/05:10am 15.8 15.4 14.2 90 0.9 E 9 13 5 7 - - 0.0
13/05:00am 15.7 15.2 13.9 89 1.1 E 9 13 5 7 - - 0.0
13/04:50am 15.5 15.5 13.6 88 1.1 E 6 9 3 5 - - 0.0
13/04:40am 15.6 15.5 13.4 87 1.3 E 6 7 3 4 - - 0.0
13/04:30am 15.7 15.6 13.4 86 1.3 E 6 11 3 6 - - 0.0
13/04:20am 15.9 15.7 13.5 86 1.4 E 7 13 4 7 - - 0.0
13/04:10am 15.9 15.3 13.6 86 1.4 E 9 15 5 8 - - 0.0
13/04:00am 16.0 15.1 13.8 87 1.3 E 11 13 6 7 - - 0.0
13/03:50am 16.1 14.9 14.0 87 1.2 E 13 20 7 11 - - 0.0
13/03:40am 16.1 14.6 14.1 88 1.2 E 15 20 8 11 - - 0.0
13/03:30am 16.2 14.3 14.1 87 1.2 E 17 19 9 10 - - 0.0
13/03:20am 16.2 14.7 14.1 87 1.2 E 15 19 8 10 - - 0.0
13/03:10am 16.4 14.9 14.3 87 1.3 E 15 19 8 10 - - 0.0
13/03:00am 16.4 14.6 14.4 88 1.2 E 17 24 9 13 - - 0.0
13/02:50am 16.3 14.8 14.2 87 1.2 E 15 19 8 10 - - 0.0
13/02:40am 16.3 15.2 14.2 87 1.2 E 13 19 7 10 - - 0.0
13/02:30am 16.3 15.1 14.0 86 1.4 E 13 17 7 9 - - 0.0
13/02:20am 16.3 14.7 13.9 86 1.4 E 15 17 8 9 - - 0.0
13/02:10am 16.3 15.1 13.9 86 1.4 E 13 15 7 8 - - 0.0
13/02:00am 16.5 14.9 13.9 84 1.5 E 15 19 8 10 - - 0.0
13/01:50am 16.6 15.8 14.0 84 1.5 E 11 15 6 8 - - 0.0
13/01:40am 16.7 15.7 14.5 87 1.3 E 13 19 7 10 - - 0.0
13/01:30am 16.9 15.5 14.5 86 1.4 E 15 19 8 10 - - 0.0
13/01:20am 17.0 15.3 14.8 87 1.3 E 17 20 9 11 - - 0.0
13/01:10am 17.0 15.2 14.5 85 1.5 E 17 20 9 11 - - 0.0
13/01:00am 17.0 15.7 14.8 87 1.3 E 15 19 8 10 - - 0.0
13/12:50am 17.1 15.8 14.9 87 1.3 E 15 15 8 8 - - 0.0
13/12:40am 17.1 16.3 15.0 87 1.3 E 13 15 7 8 - - 0.0
13/12:30am 17.1 16.7 15.2 88 1.2 E 11 15 6 8 - - 0.0
13/12:20am 17.1 16.3 15.0 87 1.3 E 13 13 7 7 - - 0.0
13/12:10am 17.3 16.4 14.9 86 1.5 E 13 19 7 10 - - 0.0
13/12:00am 17.3 16.5 15.0 86 1.4 E 13 19 7 10 - - 0.0
 
Date/Time
EST
Temp
°C
App
Temp
°C
Dew
Point
°C
Rel
Hum
%
Delta-T
°C
Wind Press
QNH
hPa
Press
MSL
hPa
Rain since
9am
mm
Dir  Spd
km/h
Gust
km/h
Spd
kts
Gust
kts
12/11:50pm 17.4 16.3 15.3 87 1.3 E 15 19 8 10 - - 0.0
12/11:40pm 17.3 16.9 15.3 88 1.2 E 11 17 6 9 - - 0.0
12/11:30pm 17.2 16.9 15.4 89 1.1 E 11 15 6 8 - - 0.0
12/11:20pm 17.1 16.4 15.4 90 1.0 E 13 15 7 8 - - 0.0
12/11:10pm 17.1 16.8 15.5 90 1.0 E 11 17 6 9 - - 0.0
12/11:00pm 17.2 16.8 15.3 88 1.2 E 11 15 6 8 - - 0.0
12/10:50pm 17.2 16.8 15.3 88 1.2 E 11 15 6 8 - - 0.0
12/10:40pm 17.3 16.9 15.1 87 1.3 E 11 15 6 8 - - 0.0
12/10:30pm 17.4 17.1 15.5 89 1.2 E 11 17 6 9 - - 0.0
12/10:20pm 17.4 16.8 15.7 90 1.0 E 13 17 7 9 - - 0.0
12/10:10pm 17.3 16.7 15.6 90 1.0 E 13 15 7 8 - - 0.0
12/10:00pm 17.3 16.3 15.5 89 1.1 E 15 19 8 10 - - 0.0
12/09:50pm 17.2 16.9 15.5 90 1.0 E 11 13 6 7 - - 0.0
12/09:40pm 17.2 16.8 15.3 88 1.2 E 11 15 6 8 - - 0.0
12/09:30pm 17.3 17.3 15.2 87 1.3 ESE 9 13 5 7 - - 0.0
12/09:20pm 17.3 17.0 15.4 88 1.2 E 11 15 6 8 - - 0.0
12/09:10pm 17.3 17.4 15.4 88 1.2 E 9 15 5 8 - - 0.0
12/09:00pm 17.3 16.7 15.7 90 1.0 E 13 15 7 8 - - 0.0
12/08:50pm 17.1 16.8 15.5 90 1.0 E 11 17 6 9 - - 0.0
12/08:40pm 17.1 17.1 15.3 89 1.1 E 9 13 5 7 - - 0.0
12/08:30pm 17.2 16.4 15.1 87 1.3 E 13 15 7 8 - - 0.0
12/08:20pm 17.3 16.6 15.3 88 1.2 E 13 17 7 9 - - 0.0
12/08:10pm 17.5 16.8 15.4 87 1.3 E 13 15 7 8 - - 0.0
12/08:00pm 17.5 16.8 15.5 88 1.2 E 13 15 7 8 - - 0.0
12/07:50pm 17.5 17.2 15.5 88 1.2 E 11 19 6 10 - - 0.0
12/07:40pm 17.5 17.2 15.5 88 1.2 E 11 13 6 7 - - 0.0
12/07:30pm 17.6 16.9 15.4 87 1.3 E 13 15 7 8 - - 0.0
12/07:20pm 17.9 17.6 15.5 86 1.5 E 11 13 6 7 - - 0.0
12/07:10pm 18.1 17.5 15.7 86 1.5 E 13 17 7 9 - - 0.0
12/07:00pm 18.1 17.9 15.6 85 1.5 E 11 13 6 7 - - 0.0
12/06:50pm 18.2 17.9 15.4 84 1.7 E 11 13 6 7 - - 0.0
12/06:40pm 18.3 17.6 15.5 84 1.7 E 13 17 7 9 - - 0.0
12/06:30pm 18.4 17.6 16.0 86 1.5 ENE 15 17 8 9 - - 0.0
12/06:20pm 18.8 18.1 16.3 85 1.6 E 15 20 8 11 - - 0.0
12/06:10pm 19.7 19.1 16.6 82 1.9 E 15 22 8 12 - - 0.0
12/06:00pm 19.8 19.3 15.8 78 2.5 E 13 19 7 10 - - 0.0
12/05:50pm 20.0 18.7 15.7 76 2.7 E 17 19 9 10 - - 0.0
12/05:40pm 20.2 18.7 15.3 73 3.0 E 17 20 9 11 - - 0.0
12/05:30pm 20.1 18.2 15.2 73 3.0 E 19 22 10 12 - - 0.0
12/05:20pm 20.7 18.9 15.5 72 3.2 E 19 22 10 12 - - 0.0
12/05:00pm 21.2 19.3 15.8 71 3.4 E 20 24 11 13 - - 0.0
12/04:50pm 21.5 19.6 15.3 68 3.8 E 19 20 10 11 - - 0.0
12/04:40pm 21.3 19.3 15.6 70 3.5 E 20 28 11 15 - - 0.0
12/04:30pm 21.4 19.4 15.5 69 3.7 E 20 26 11 14 - - 0.0
12/04:20pm 21.4 19.6 16.0 71 3.4 E 20 26 11 14 - - 0.0
12/04:10pm 22.3 19.9 16.4 69 3.7 E 24 28 13 15 - - 0.0
12/04:00pm 22.1 20.2 15.8 67 3.9 E 20 28 11 15 - - 0.0
12/03:50pm 23.0 21.4 16.6 67 4.1 E 20 24 11 13 - - 0.0
12/03:40pm 22.9 22.3 16.7 68 3.9 E 15 20 8 11 - - 0.0
12/03:30pm 23.7 22.5 16.1 62 4.8 E 17 20 9 11 - - 0.0
12/03:20pm 23.4 22.6 16.0 63 4.7 ESE 15 20 8 11 - - 0.0
12/03:10pm 23.0 22.0 15.6 63 4.6 E 15 20 8 11 - - 0.0
12/03:00pm 23.3 23.3 16.2 64 4.5 E 11 15 6 8 - - 0.0
12/02:50pm 21.4 21.3 17.8 80 2.3 E 15 22 8 12 - - 0.0
12/02:40pm 22.1 21.0 17.8 76 2.8 E 20 24 11 13 - - 0.0
12/02:30pm 23.0 22.4 16.6 67 4.1 ENE 15 19 8 10 - - 0.0
12/02:20pm 24.1 22.4 15.8 59 5.2 E 19 20 10 11 - - 0.0
12/02:10pm 25.5 24.8 16.4 57 5.8 ESE 15 26 8 14 - - 0.0
12/02:00pm 25.6 24.5 14.3 49 7.0 ESE 13 17 7 9 - - 0.0
12/01:50pm 25.6 24.8 15.1 52 6.6 E 13 17 7 9 - - 0.0
12/01:40pm 25.7 24.8 14.8 51 6.8 E 13 17 7 9 - - 0.0
12/01:30pm 25.7 24.3 14.5 50 6.9 ESE 15 17 8 9 - - 0.0
12/01:20pm 24.3 22.8 14.3 53 6.2 E 15 22 8 12 - - 0.0
12/01:10pm 24.4 24.1 15.5 57 5.6 E 11 17 6 9 - - 0.0
12/01:00pm 25.1 24.4 15.5 55 6.0 ESE 13 19 7 10 - - 0.0
12/12:50pm 23.8 22.8 14.6 56 5.7 ESE 13 19 7 10 - - 0.0
12/12:40pm 24.9 24.2 15.5 56 5.9 E 13 20 7 11 - - 0.0
12/12:30pm 24.0 23.2 15.1 57 5.5 E 13 19 7 10 - - 0.0
12/12:20pm 24.3 23.4 14.9 55 5.8 E 13 17 7 9 - - 0.0
12/12:10pm 24.2 21.9 11.7 45 7.4 E 15 20 8 11 - - 0.0
12/12:00pm 23.0 21.9 15.2 61 4.8 E 15 20 8 11 - - 0.0
12/11:50am 24.3 22.5 15.6 58 5.5 E 19 24 10 13 - - 0.0
12/11:40am 25.0 23.3 14.8 53 6.3 E 17 24 9 13 - - 0.0
12/11:30am 25.1 23.3 14.4 51 6.6 E 17 26 9 14 - - 0.0
12/11:20am 24.3 21.9 13.9 52 6.4 ENE 19 22 10 12 - - 0.0
12/11:10am 24.0 22.2 14.4 55 5.9 ENE 17 20 9 11 - - 0.0
12/11:00am 23.0 21.0 14.9 60 5.0 E 19 20 10 11 - - 0.0
12/10:50am 23.4 21.9 15.3 60 5.0 ENE 17 22 9 12 - - 0.0
12/10:40am 24.4 23.1 14.8 55 6.0 E 15 22 8 12 - - 0.0
12/10:30am 24.1 22.4 14.7 55 5.8 E 17 22 9 12 - - 0.0
12/10:20am 23.5 22.1 15.5 60 5.0 ENE 17 19 9 10 - - 0.0
12/10:10am 23.1 22.5 15.7 63 4.6 E 13 19 7 10 - - 0.0
12/10:00am 23.3 22.0 15.9 63 4.7 E 17 20 9 11 - - 0.0
12/09:50am 23.1 21.4 14.7 59 5.2 E 17 22 9 12 - - 0.0
12/09:40am 22.9 21.2 15.7 64 4.5 E 19 22 10 12 - - 0.0
12/09:30am 22.8 20.5 14.6 60 5.0 E 20 24 11 13 - - 0.0
12/09:20am 22.5 21.3 16.0 66 4.1 E 17 24 9 13 - - 0.0
12/09:10am 22.4 22.2 15.8 66 4.1 E 11 13 6 7 - - 0.0
12/09:00am 22.0 21.5 16.0 68 3.8 E 13 20 7 11 - - 0.4
12/08:50am 21.7 19.9 15.5 68 3.9 E 19 22 10 12 - - 0.4
12/08:40am 21.6 20.3 15.8 69 3.6 E 17 22 9 12 - - 0.4
12/08:30am 21.0 19.5 16.2 74 3.0 E 19 20 10 11 - - 0.4
12/08:20am 21.1 20.0 16.4 74 3.0 E 17 22 9 12 - - 0.4
12/08:10am 20.4 18.8 16.1 76 2.7 E 19 22 10 12 - - 0.4
12/08:00am 20.3 18.8 16.4 78 2.4 E 19 20 10 11 - - 0.4
12/07:50am 20.4 19.2 16.2 77 2.6 E 17 22 9 12 - - 0.4
12/07:40am 20.3 19.2 16.3 78 2.5 E 17 20 9 11 - - 0.4
12/07:30am 19.3 17.7 16.0 81 2.0 E 19 26 10 14 - - 0.4
12/07:20am 19.0 17.8 16.2 84 1.7 E 17 20 9 11 - - 0.4
12/07:10am 19.3 19.3 16.3 83 1.9 E 11 19 6 10 - - 0.4
12/07:00am 18.6 17.9 16.5 87 1.3 E 15 17 8 9 - - 0.4
12/06:50am 18.5 17.3 16.2 86 1.4 E 17 20 9 11 - - 0.4
12/06:40am 18.4 18.0 16.2 87 1.4 E 13 17 7 9 - - 0.4
12/06:30am 18.2 17.0 16.0 87 1.4 E 17 20 9 11 - - 0.4
12/06:20am 18.2 17.7 15.9 86 1.4 E 13 17 7 9 - - 0.4
12/06:10am 18.1 17.6 15.9 87 1.4 E 13 17 7 9 - - 0.4
12/06:00am 17.8 17.7 15.9 89 1.2 E 11 15 6 8 - - 0.4
12/05:50am 17.8 18.1 16.0 89 1.1 E 9 15 5 8 - - 0.4
12/05:40am 17.9 17.8 15.9 88 1.2 E 11 19 6 10 - - 0.4
12/05:30am 18.0 17.2 16.0 88 1.2 E 15 17 8 9 - - 0.4
12/05:20am 18.0 17.5 16.0 88 1.2 E 13 17 7 9 - - 0.4
12/05:10am 18.1 17.0 16.3 89 1.1 E 17 24 9 13 - - 0.4
12/05:00am 18.0 16.9 16.3 90 1.1 E 17 19 9 10 - - 0.4
12/04:50am 18.1 16.5 16.1 88 1.2 E 19 24 10 13 - - 0.4
12/04:40am 18.2 18.3 16.4 89 1.1 E 11 15 6 8 - - 0.4
12/04:30am 18.2 18.6 16.3 89 1.2 E 9 15 5 8 - - 0.4
12/04:20am 18.1 17.8 16.4 90 1.1 E 13 15 7 8 - - 0.4
12/04:10am 18.0 18.1 16.4 90 1.0 E 11 15 6 8 - - 0.4
12/04:00am 17.9 17.9 16.2 90 1.1 E 11 15 6 8 - - 0.4
12/03:50am 17.9 17.1 16.1 89 1.1 E 15 19 8 10 - - 0.4
12/03:40am 17.8 17.0 16.1 90 1.1 E 15 17 8 9 - - 0.4
12/03:30am 17.8 16.6 16.2 90 1.0 E 17 20 9 11 - - 0.4
12/03:20am 17.8 17.1 16.3 91 0.9 E 15 19 8 10 - - 0.4
12/03:10am 17.8 17.1 16.3 91 0.9 E 15 17 8 9 - - 0.4
12/03:00am 17.7 17.3 16.1 90 1.0 E 13 19 7 10 - - 0.4
12/02:50am 17.6 17.5 16.1 91 0.9 E 11 15 6 8 - - 0.4
12/02:40am 17.7 16.5 16.2 91 0.9 E 17 20 9 11 - - 0.4
12/02:30am 17.6 17.2 16.1 91 0.9 E 13 17 7 9 - - 0.4
12/02:20am 17.7 17.3 16.1 90 1.0 E 13 15 7 8 - - 0.4
12/02:10am 17.7 17.8 16.4 92 0.8 E 11 15 6 8 - - 0.4
12/02:00am 17.6 16.8 16.1 91 0.9 E 15 17 8 9 - - 0.4
12/01:50am 17.5 17.0 15.8 90 1.0 ESE 13 17 7 9 - - 0.4
12/01:40am 17.3 17.5 15.8 91 0.9 ESE 9 13 5 7 - - 0.4
12/01:30am 17.3 17.1 15.8 91 0.9 E 11 11 6 6 - - 0.4
12/01:20am 17.2 17.3 15.6 90 1.0 ESE 9 13 5 7 - - 0.4
12/01:10am 17.2 16.6 15.6 90 1.0 E 13 17 7 9 - - 0.4
12/01:00am 17.4 16.7 15.5 89 1.2 E 13 19 7 10 - - 0.4
12/12:50am 17.5 17.2 15.5 88 1.2 ESE 11 17 6 9 - - 0.4
12/12:40am 17.6 17.5 15.9 90 1.0 ESE 11 17 6 9 - - 0.4
12/12:30am 17.7 17.3 16.2 91 0.9 E 13 15 7 8 - - 0.4
12/12:20am 17.8 17.3 16.0 89 1.1 E 13 17 7 9 - - 0.4
12/12:10am 17.8 17.4 16.2 90 1.0 E 13 19 7 10 - - 0.4
12/12:00am 17.8 17.4 16.3 91 0.9 E 13 20 7 11 - - 0.4
 
Date/Time
EST
Temp
°C
App
Temp
°C
Dew
Point
°C
Rel
Hum
%
Delta-T
°C
Wind Press
QNH
hPa
Press
MSL
hPa
Rain since
9am
mm
Dir  Spd
km/h
Gust
km/h
Spd
kts
Gust
kts
11/11:50pm 17.8 17.4 16.2 90 1.0 E 13 17 7 9 - - 0.4
11/11:40pm 17.9 17.1 16.2 90 1.1 E 15 19 8 10 - - 0.4
11/11:30pm 17.9 17.2 16.3 90 1.0 E 15 19 8 10 - - 0.4
11/11:20pm 17.7 17.3 16.3 91 0.9 E 13 17 7 9 - - 0.4
11/11:10pm 17.7 17.7 16.2 91 0.9 E 11 17 6 9 - - 0.4
11/11:00pm 17.8 17.1 16.3 91 0.9 E 15 20 8 11 - - 0.4
11/10:50pm 17.8 17.1 16.3 91 0.9 E 15 20 8 11 - - 0.4
11/10:40pm 17.7 16.9 16.2 91 0.9 E 15 19 8 10 - - 0.4
11/10:30pm 17.7 17.3 16.3 91 0.9 E 13 19 7 10 - - 0.4
11/10:20pm 17.7 17.0 16.3 91 0.9 E 15 19 8 10 - - 0.4
11/10:10pm 17.8 17.9 16.4 91 0.9 E 11 15 6 8 - - 0.4
11/10:00pm 17.7 17.3 16.3 91 0.9 E 13 15 7 8 - - 0.4
11/09:50pm 17.6 16.9 16.3 92 0.8 E 15 19 8 10 - - 0.4
11/09:40pm 17.6 17.6 16.2 91 0.9 E 11 15 6 8 - - 0.4
11/09:30pm 17.8 17.4 16.2 90 1.0 E 13 15 7 8 - - 0.4
11/09:20pm 17.9 17.2 16.3 90 1.0 E 15 17 8 9 - - 0.4

Other Formats:

Comma delimited format used in spreadsheet applications
http://www.bom.gov.au/fwo/IDQ60801/IDQ60801.99124.axf

JavaScript Object Notation format (JSON) in row-major order
http://www.bom.gov.au/fwo/IDQ60801/IDQ60801.99124.json